Vero Beach, Florida
Current Conditions -  °F | °C
As of 12:53 AM on Friday 28 Nov 2014 (Local Time) from KVRB Reporting Station
Clear Clear  
Wind Chill: 10°   Ceiling: Unl
Heat Index: 10°   Visibility: 10mi
Dew Point:   Wind: 10mph
Humidity: 63%   Direction: 320°NW
Pressure: 30.24"   Gusts: NA
Location:  27.64°N, 80.39°W
Report Text: KVRB 280553Z AUTO 32009KT 10SM CLR 10/03 A3024 RMK AO2 SLP239 T01000033 10133 20094 50003
Loading
Personal Weather Stations






























Interactive Weather Map New forecast layout! Learn more

10-Day Weather Forecast

Advertisements
Track Severe Weather on mobile